Lithonia, Georgia
Current Conditions -  °F | °C
As of 3:15 PM on Monday 26 Jan 2015 (Local Time) from KCVC Reporting Station
Overcast Overcast  
Wind Chill: 35°   Ceiling: 3300
Heat Index: 43°   Visibility: 10mi
Dew Point: 34°   Wind: 17mph
Humidity: 70%   Direction: 300°WNW
Pressure: 29.83"   Gusts: 24mph
Location:  33.71°N, 84.11°W
Report Text: KCVC 262015Z AUTO 30015G21KT 10SM SCT026 OVC033 06/01 A2983 RMK AO2
Loading
Personal Weather Stations






























Interactive Weather Map New forecast layout! Learn more

10-Day Weather Forecast

Advertisements
Track Severe Weather on mobile